Time;durP1;ratioP1;P1;durP2;ratioP2;P2;SDS_P1;SDS_P2;PMS_P1;PMS_P2;Temp;Humidity;BMP_temperature;BMP_pressure;BME280_temperature;BME280_humidity;BME280_pressure;Samples;Min_cycle;Max_cycle;Signal;HPM_P1;HPM_P2
2022/06/14 00:03:05;;;;;;;6.57;3.72;;;21.00;99.90;;;;;;5053357;28;20082;-75
2022/06/14 00:05:31;;;;;;;5.20;3.00;;;21.10;99.90;;;;;;5054407;28;20032;-76
2022/06/14 00:07:57;;;;;;;4.93;3.40;;;21.10;99.90;;;;;;5052723;28;20036;-77
2022/06/14 00:10:23;;;;;;;5.15;3.40;;;21.20;99.90;;;;;;5054141;28;20475;-76
2022/06/14 00:12:49;;;;;;;9.32;3.40;;;21.20;99.90;;;;;;5054986;28;20032;-77
2022/06/14 00:15:15;;;;;;;5.85;3.40;;;21.20;99.90;;;;;;5054847;28;20066;-78
2022/06/14 00:17:40;;;;;;;3.45;2.60;;;21.20;99.90;;;;;;5052975;28;20017;-77
2022/06/14 00:20:07;;;;;;;6.80;3.08;;;21.20;99.90;;;;;;5054472;28;20057;-77
2022/06/14 00:22:34;;;;;;;7.68;3.10;;;21.20;99.90;;;;;;5054104;28;20095;-77
2022/06/14 00:25:00;;;;;;;6.47;4.00;;;21.20;99.90;;;;;;5054012;28;20017;-76
2022/06/14 00:27:26;;;;;;;4.13;2.90;;;21.20;99.90;;;;;;5053818;28;20479;-76
2022/06/14 00:29:51;;;;;;;3.78;2.70;;;21.20;99.90;;;;;;5053343;28;20017;-77
2022/06/14 00:32:17;;;;;;;3.78;3.30;;;21.20;99.90;;;;;;5053740;28;20348;-77
2022/06/14 00:34:43;;;;;;;9.10;3.25;;;21.20;99.90;;;;;;5054093;28;20055;-77
2022/06/14 00:37:15;;;;;;;3.78;3.22;;;21.20;99.90;;;;;;5055220;28;20029;-77
2022/06/14 00:39:41;;;;;;;6.72;3.55;;;21.20;99.90;;;;;;5054810;28;20017;-75
2022/06/14 00:42:17;;;;;;;3.17;2.50;;;21.20;99.90;;;;;;5053853;28;20183;-75
2022/06/14 00:45:00;;;;;;;8.77;3.00;;;21.20;99.90;;;;;;5053785;28;20032;-76
2022/06/14 00:47:26;;;;;;;6.18;3.35;;;21.10;99.90;;;;;;5054109;28;20021;-78
2022/06/14 00:49:56;;;;;;;3.17;2.80;;;21.10;99.90;;;;;;5053650;28;20083;-76
2022/06/14 00:52:36;;;;;;;8.20;3.45;;;21.20;99.90;;;;;;5054924;28;20409;-76
2022/06/14 00:55:10;;;;;;;4.63;3.58;;;21.20;99.90;;;;;;5054647;28;20060;-78
2022/06/14 00:57:42;;;;;;;4.13;3.10;;;21.10;99.90;;;;;;5053610;28;20021;-76
2022/06/14 01:00:13;;;;;;;3.70;3.05;;;21.10;99.90;;;;;;5054143;28;20027;-76
2022/06/14 01:02:50;;;;;;;4.95;2.75;;;21.10;99.90;;;;;;5053503;28;20028;-75
2022/06/14 01:05:22;;;;;;;3.88;2.03;;;21.10;99.90;;;;;;5053779;28;20031;-76
2022/06/14 01:07:52;;;;;;;3.88;2.20;;;21.10;99.90;;;;;;5053748;28;20451;-77
2022/06/14 01:10:31;;;;;;;5.07;2.65;;;21.10;99.90;;;;;;5053352;28;20021;-76
2022/06/14 01:13:03;;;;;;;3.15;2.42;;;21.10;99.90;;;;;;5053577;28;20451;-77
2022/06/14 01:15:32;;;;;;;5.93;3.50;;;21.10;99.90;;;;;;5053166;28;20031;-77
2022/06/14 01:18:00;;;;;;;5.05;3.10;;;21.10;99.90;;;;;;5052654;28;20364;-76
2022/06/14 01:20:27;;;;;;;5.57;2.90;;;21.10;99.90;;;;;;5052195;28;20053;-76
2022/06/14 01:22:54;;;;;;;6.85;3.90;;;21.00;99.90;;;;;;5052171;28;20066;-77
2022/06/14 01:25:21;;;;;;;4.53;2.50;;;21.00;99.90;;;;;;5053124;28;20025;-75
2022/06/14 01:27:47;;;;;;;9.05;2.38;;;20.90;99.90;;;;;;5053104;28;20376;-75
2022/06/14 01:30:15;;;;;;;2.95;1.80;;;20.80;99.90;;;;;;5053016;28;20082;-75
2022/06/14 01:33:10;;;;;;;12.93;3.40;;;20.80;99.90;;;;;;5052874;28;20020;-74
2022/06/14 01:35:40;;;;;;;3.30;2.92;;;20.80;99.90;;;;;;5052499;28;20037;-77
2022/06/14 01:38:10;;;;;;;6.13;3.10;;;20.80;99.90;;;;;;5052918;28;20448;-77
2022/06/14 01:41:10;;;;;;;5.35;2.80;;;20.80;99.90;;;;;;5053180;28;20075;-75
2022/06/14 01:43:57;;;;;;;6.32;3.22;;;20.80;99.90;;;;;;5052832;28;20021;-76
2022/06/14 01:46:26;;;;;;;4.78;2.72;;;20.90;99.90;;;;;;5052589;28;20063;-75
2022/06/14 01:51:50;;;;;;;6.95;3.15;;;20.90;99.90;;;;;;5053119;28;20047;-75
2022/06/14 01:52:04;;;;;;;7.57;4.35;;;20.90;99.90;;;;;;5052230;28;20863;-75
2022/06/14 01:55:00;;;;;;;3.55;3.05;;;20.90;99.90;;;;;;5052666;28;20025;-74
2022/06/14 01:57:55;;;;;;;5.45;3.13;;;20.90;99.90;;;;;;5053303;28;20079;-77
2022/06/14 02:00:51;;;;;;;5.68;2.00;;;20.80;99.90;;;;;;5052343;28;20024;-75
2022/06/14 02:06:33;;;;;;;7.47;6.73;;;20.80;99.90;;;;;;5052669;28;20086;-74
2022/06/14 02:09:18;;;;;;;5.22;3.15;;;20.70;99.90;;;;;;5052651;28;20250;-77
2022/06/14 02:11:44;;;;;;;4.82;3.00;;;20.70;99.90;;;;;;5052877;28;20456;-75
2022/06/14 02:14:15;;;;;;;4.25;2.40;;;20.70;99.90;;;;;;5052419;28;20093;-76
2022/06/14 02:16:59;;;;;;;5.53;2.72;;;20.70;99.90;;;;;;5052790;28;20029;-77
2022/06/14 02:19:35;;;;;;;4.05;2.60;;;20.60;99.90;;;;;;5052819;28;20436;-76
2022/06/14 02:22:18;;;;;;;3.15;2.47;;;20.70;99.90;;;;;;5052523;28;20501;-74
2022/06/14 02:24:55;;;;;;;3.42;2.42;;;20.60;99.90;;;;;;5052723;28;20017;-76
2022/06/14 02:27:35;;;;;;;5.50;2.20;;;20.60;99.90;;;;;;5052165;28;20013;-74
2022/06/14 02:30:07;;;;;;;6.60;2.45;;;20.50;99.90;;;;;;5052700;28;20024;-74
2022/06/14 02:32:56;;;;;;;6.93;2.33;;;20.60;99.90;;;;;;5052514;28;20463;-75
2022/06/14 02:35:28;;;;;;;2.85;2.45;;;20.60;99.90;;;;;;5052305;28;20651;-75
2022/06/14 02:38:15;;;;;;;3.97;2.75;;;20.60;99.90;;;;;;5052592;28;20021;-76
2022/06/14 02:41:19;;;;;;;4.53;2.45;;;20.60;99.90;;;;;;5052591;28;20032;-77
2022/06/14 02:44:09;;;;;;;5.03;2.45;;;20.60;99.90;;;;;;5052271;28;20077;-75
2022/06/14 02:46:43;;;;;;;5.93;2.22;;;20.60;99.90;;;;;;5052543;28;20466;-77
2022/06/14 02:49:23;;;;;;;3.33;2.10;;;20.50;99.90;;;;;;5052208;28;20013;-76
2022/06/14 02:52:01;;;;;;;5.07;2.20;;;20.50;99.90;;;;;;5052457;28;20463;-74
2022/06/14 02:54:34;;;;;;;4.05;2.10;;;20.50;99.90;;;;;;5052055;28;20116;-77
2022/06/14 02:57:05;;;;;;;5.70;2.20;;;20.50;99.90;;;;;;5051194;28;20025;-75
2022/06/14 02:59:43;;;;;;;8.52;2.20;;;20.50;99.90;;;;;;5052087;28;20021;-76
2022/06/14 03:02:19;;;;;;;5.38;2.00;;;20.50;99.90;;;;;;5052269;28;20052;-75
2022/06/14 03:04:54;;;;;;;3.95;2.40;;;20.50;99.90;;;;;;5051053;28;20044;-76
2022/06/14 03:07:40;;;;;;;4.95;2.13;;;20.50;99.90;;;;;;5054123;28;20371;-77
2022/06/14 03:10:07;;;;;;;2.78;1.98;;;20.50;99.90;;;;;;5055696;28;20017;-76
2022/06/14 03:13:14;;;;;;;3.35;2.40;;;20.40;99.90;;;;;;5055929;28;20032;-75
2022/06/14 03:16:09;;;;;;;5.28;2.40;;;20.40;99.90;;;;;;5033261;28;20045;-75
2022/06/14 03:18:50;;;;;;;3.97;3.10;;;20.40;99.90;;;;;;5032589;28;20048;-74
2022/06/14 03:21:39;;;;;;;5.15;2.22;;;20.30;99.90;;;;;;5033563;28;20112;-76
2022/06/14 03:24:13;;;;;;;5.40;2.10;;;20.30;99.90;;;;;;5032996;28;20431;-76
2022/06/14 03:27:14;;;;;;;7.10;2.08;;;20.20;99.90;;;;;;5017012;28;20025;-76
2022/06/14 03:29:45;;;;;;;5.78;2.53;;;20.20;99.90;;;;;;5033801;28;20033;-77
2022/06/14 03:32:58;;;;;;;6.40;2.63;;;20.10;99.90;;;;;;5034114;28;20464;-75
2022/06/14 03:35:48;;;;;;;3.60;1.85;;;20.00;99.90;;;;;;5026946;28;20042;-76
2022/06/14 03:38:32;;;;;;;9.90;2.40;;;20.00;99.90;;;;;;5033592;28;20028;-75
2022/06/14 03:40:58;;;;;;;5.43;2.33;;;19.90;99.90;;;;;;5033946;28;20491;-75
2022/06/14 03:43:25;;;;;;;6.30;2.05;;;19.90;99.90;;;;;;5016594;28;20538;-76
2022/06/14 03:46:18;;;;;;;4.43;2.10;;;19.90;99.90;;;;;;5033324;28;20092;-75
2022/06/14 03:48:46;;;;;;;6.43;2.88;;;19.90;99.90;;;;;;5036615;28;20029;-76
2022/06/14 03:51:38;;;;;;;7.43;3.10;;;19.90;99.90;;;;;;5055622;28;20021;-76
2022/06/14 03:54:52;;;;;;;6.80;3.22;;;19.90;99.90;;;;;;5055909;28;20036;-76
2022/06/14 03:57:33;;;;;;;4.35;2.05;;;19.80;99.90;;;;;;5053363;28;20043;-75
2022/06/14 04:00:27;;;;;;;5.07;2.38;;;19.90;99.90;;;;;;5055885;28;20021;-75
2022/06/14 04:03:25;;;;;;;3.17;1.88;;;19.80;99.90;;;;;;5050666;28;20041;-76
2022/06/14 04:05:51;;;;;;;6.47;2.15;;;19.90;99.90;;;;;;5055326;28;20118;-76
2022/06/14 04:08:29;;;;;;;4.85;2.25;;;19.90;99.90;;;;;;5055632;28;20064;-76
2022/06/14 04:11:28;;;;;;;2.90;2.20;;;19.90;99.90;;;;;;5056124;28;20017;-77
2022/06/14 04:14:15;;;;;;;3.58;2.50;;;19.90;99.90;;;;;;5055270;28;20071;-77
2022/06/14 04:17:12;;;;;;;5.97;2.60;;;20.00;99.90;;;;;;5055191;28;20080;-76
2022/06/14 04:19:48;;;;;;;5.05;2.90;;;19.90;99.90;;;;;;5054347;28;20043;-75
2022/06/14 04:22:28;;;;;;;5.57;2.15;;;19.80;99.90;;;;;;5055344;28;20443;-76
2022/06/14 04:25:31;;;;;;;5.13;2.33;;;19.80;99.90;;;;;;5055696;28;20036;-75
2022/06/14 04:28:00;;;;;;;2.97;1.90;;;19.80;99.90;;;;;;5055152;28;20083;-76
2022/06/14 04:30:38;;;;;;;6.25;2.28;;;19.80;99.90;;;;;;5055150;28;20109;-76
2022/06/14 04:33:43;;;;;;;4.50;2.40;;;19.80;99.90;;;;;;5054808;28;20025;-75
2022/06/14 04:36:20;;;;;;;5.78;2.13;;;19.80;99.90;;;;;;5054131;28;20368;-76
2022/06/14 04:38:53;;;;;;;5.22;2.10;;;19.80;99.90;;;;;;5055230;28;20027;-74
2022/06/14 04:41:29;;;;;;;4.95;1.92;;;19.70;99.90;;;;;;5053869;28;20025;-76
2022/06/14 04:44:02;;;;;;;3.88;2.05;;;19.70;99.90;;;;;;5054999;28;20036;-75
2022/06/14 04:46:35;;;;;;;5.45;2.47;;;19.70;99.90;;;;;;5054580;28;20100;-75
2022/06/14 04:49:11;;;;;;;2.95;1.88;;;19.70;99.90;;;;;;5054152;28;20123;-75
2022/06/14 04:51:40;;;;;;;3.72;1.70;;;19.60;99.90;;;;;;5054503;28;20095;-74
2022/06/14 04:54:19;;;;;;;5.82;1.63;;;19.60;99.90;;;;;;5054510;28;20107;-75
2022/06/14 04:57:03;;;;;;;8.32;2.13;;;19.60;99.90;;;;;;5054527;28;20017;-72
2022/06/14 04:59:33;;;;;;;5.50;2.40;;;19.60;99.90;;;;;;5054820;28;20025;-75
2022/06/14 05:02:15;;;;;;;5.05;2.15;;;19.60;99.90;;;;;;5054296;28;20186;-75
2022/06/14 05:04:51;;;;;;;3.25;1.95;;;19.60;99.90;;;;;;5054600;28;20031;-74
2022/06/14 05:07:26;;;;;;;3.83;2.10;;;19.70;99.90;;;;;;5054722;28;20097;-73
2022/06/14 05:10:18;;;;;;;3.55;1.88;;;19.70;99.90;;;;;;5054372;28;20067;-75
2022/06/14 05:12:55;;;;;;;;;;;19.70;99.90;;;;;;5053742;28;20387;-74
2022/06/14 05:15:53;;;;;;;3.95;2.75;;;19.70;99.90;;;;;;5054269;28;19931;-76
2022/06/14 05:19:11;;;;;;;3.88;2.50;;;19.70;99.90;;;;;;5054325;28;20128;-73
2022/06/14 05:22:00;;;;;;;7.03;2.60;;;19.70;99.90;;;;;;5040081;28;20067;-73
2022/06/14 05:24:26;;;;;;;3.03;2.05;;;19.70;99.90;;;;;;5050394;28;20043;-75
2022/06/14 05:27:18;;;;;;;8.02;2.20;;;19.80;99.90;;;;;;5053627;28;20021;-73
2022/06/14 05:29:54;;;;;;;4.93;2.47;;;19.70;99.90;;;;;;5053865;28;20013;-74
2022/06/14 05:32:32;;;;;;;5.60;2.50;;;19.70;99.90;;;;;;5054243;28;20059;-75
2022/06/14 05:35:19;;;;;;;3.17;1.60;;;19.70;99.90;;;;;;5053922;28;20428;-75
2022/06/14 05:38:03;;;;;;;2.95;2.10;;;19.80;99.90;;;;;;5053137;28;20028;-74
2022/06/14 05:40:35;;;;;;;4.80;2.10;;;19.80;99.90;;;;;;5053348;28;20051;-75
2022/06/14 05:43:10;;;;;;;3.67;2.10;;;19.90;99.90;;;;;;5053156;28;20025;-74
2022/06/14 05:45:40;;;;;;;10.27;2.22;;;20.00;99.90;;;;;;5053991;28;20021;-74
2022/06/14 05:48:11;;;;;;;9.15;2.15;;;20.10;99.90;;;;;;5053759;28;20017;-75
2022/06/14 05:50:41;;;;;;;3.05;2.15;;;20.10;99.90;;;;;;5054044;28;20017;-75
2022/06/14 05:53:20;;;;;;;3.75;2.17;;;20.20;99.90;;;;;;5053664;28;20399;-76
2022/06/14 05:55:49;;;;;;;6.90;2.35;;;20.20;99.90;;;;;;5053904;28;20108;-75
2022/06/14 05:58:31;;;;;;;6.25;2.83;;;20.30;99.90;;;;;;5053546;28;20073;-74
2022/06/14 06:01:12;;;;;;;3.85;2.08;;;20.30;99.90;;;;;;5054268;28;20046;-75
2022/06/14 06:03:54;;;;;;;5.20;2.00;;;20.30;99.90;;;;;;5053637;28;20028;-77
2022/06/14 06:06:27;;;;;;;;;;;20.30;99.90;;;;;;5053957;28;20246;-73
2022/06/14 06:09:17;;;;;;;2.50;1.90;;;20.30;99.80;;;;;;5052989;28;19901;-75
2022/06/14 06:11:52;;;;;;;4.68;2.40;;;20.20;97.80;;;;;;5049689;28;20021;-75
2022/06/14 06:14:20;;;;;;;4.88;2.47;;;20.10;99.00;;;;;;5053329;28;20485;-75
2022/06/14 06:17:05;;;;;;;6.20;2.20;;;20.10;99.40;;;;;;5053828;28;20028;-75
2022/06/14 06:19:34;;;;;;;5.38;2.42;;;20.10;99.90;;;;;;5052343;28;20502;-75
2022/06/14 06:22:03;;;;;;;4.00;1.95;;;20.10;99.20;;;;;;5053179;28;20486;-76
2022/06/14 06:24:47;;;;;;;7.30;2.30;;;20.10;98.60;;;;;;5051961;28;20247;-73
2022/06/14 06:27:13;;;;;;;5.80;2.20;;;20.20;99.90;;;;;;5052623;28;20021;-73
2022/06/14 06:29:52;;;;;;;5.43;2.20;;;20.60;99.90;;;;;;5053713;28;20137;-75
2022/06/14 06:32:20;;;;;;;2.95;2.00;;;20.80;99.90;;;;;;5053324;28;20102;-74
2022/06/14 06:34:47;;;;;;;4.15;2.33;;;20.90;97.40;;;;;;5053458;28;20439;-73
2022/06/14 06:37:31;;;;;;;4.75;2.20;;;20.80;93.20;;;;;;5053498;28;20029;-74
2022/06/14 06:40:15;;;;;;;5.80;2.17;;;20.80;93.00;;;;;;5053165;28;20391;-73
2022/06/14 06:43:19;;;;;;;4.50;2.47;;;20.70;92.50;;;;;;5056567;28;20029;-73
2022/06/14 06:45:50;;;;;;;13.02;2.28;;;20.90;93.40;;;;;;5034735;28;20036;-75
2022/06/14 06:48:21;;;;;;;6.67;2.20;;;20.90;93.40;;;;;;5018504;28;20527;-73
2022/06/14 06:50:59;;;;;;;4.93;2.30;;;20.90;92.90;;;;;;5035233;28;20144;-73
2022/06/14 06:53:30;;;;;;;4.13;2.15;;;20.70;91.40;;;;;;5034684;28;20496;-72
2022/06/14 06:56:06;;;;;;;4.60;1.95;;;20.60;92.00;;;;;;5034893;28;20491;-72
2022/06/14 06:58:45;;;;;;;3.72;1.98;;;20.40;92.90;;;;;;5034998;28;20067;-76
2022/06/14 07:01:16;;;;;;;4.28;2.10;;;20.10;92.10;;;;;;5034565;28;20534;-73
2022/06/14 07:03:51;;;;;;;3.90;1.87;;;20.10;94.40;;;;;;5034916;28;20037;-74
2022/06/14 07:06:26;;;;;;;5.40;2.10;;;20.10;94.70;;;;;;5034758;28;20033;-76
2022/06/14 07:08:58;;;;;;;5.10;2.35;;;20.40;95.50;;;;;;5034425;28;20079;-74
2022/06/14 07:11:30;;;;;;;4.80;2.42;;;20.60;94.20;;;;;;5034720;28;20060;-75
2022/06/14 07:14:21;;;;;;;6.60;2.65;;;20.90;92.90;;;;;;5034193;28;20029;-75
2022/06/14 07:17:01;;;;;;;7.95;2.28;;;21.20;92.20;;;;;;5048281;28;20029;-75
2022/06/14 07:19:33;;;;;;;5.97;3.75;;;21.50;93.60;;;;;;5056453;28;20428;-75
2022/06/14 07:22:17;;;;;;;7.80;3.72;;;21.90;90.40;;;;;;5055948;28;20050;-74
2022/06/14 07:25:04;;;;;;;5.82;3.60;;;22.10;87.10;;;;;;5056699;28;20451;-75
2022/06/14 07:28:06;;;;;;;7.10;3.97;;;22.30;86.60;;;;;;5056002;28;20028;-73
2022/06/14 07:30:45;;;;;;;8.48;4.15;;;22.40;82.70;;;;;;5045539;28;20086;-74
2022/06/14 07:33:13;;;;;;;9.15;4.20;;;22.40;80.60;;;;;;5056447;28;20108;-74
2022/06/14 07:36:00;;;;;;;4.80;3.03;;;22.30;80.70;;;;;;5056401;28;20048;-73
2022/06/14 07:38:34;;;;;;;5.93;3.55;;;22.10;82.10;;;;;;5056692;28;20021;-73
2022/06/14 07:41:15;;;;;;;5.55;3.78;;;22.30;82.10;;;;;;5056330;28;20020;-73
2022/06/14 07:44:01;;;;;;;8.48;3.95;;;22.60;81.60;;;;;;5055749;28;20028;-74
2022/06/14 07:46:49;;;;;;;6.28;4.30;;;22.80;80.70;;;;;;5056301;28;20025;-74
2022/06/14 07:49:25;;;;;;;9.05;3.80;;;22.80;78.20;;;;;;5055817;28;20076;-73
2022/06/14 07:51:56;;;;;;;6.47;3.67;;;22.70;76.20;;;;;;5056188;28;20029;-75
2022/06/14 07:54:36;;;;;;;6.78;3.13;;;22.50;76.90;;;;;;5055990;28;20032;-74
2022/06/14 07:57:16;;;;;;;3.63;2.35;;;22.40;76.00;;;;;;5055746;28;20092;-73
2022/06/14 08:02:56;;;;;;;9.10;2.85;;;22.50;81.30;;;;;;5055098;28;20474;-75
2022/06/14 08:05:28;;;;;;;5.10;4.18;;;22.70;79.30;;;;;;5055939;28;20024;-74
2022/06/14 08:07:57;;;;;;;6.32;4.90;;;22.80;77.60;;;;;;5054803;28;20032;-75
2022/06/14 08:10:33;;;;;;;4.40;3.55;;;22.80;78.90;;;;;;5055336;28;20025;-76
2022/06/14 08:13:10;;;;;;;7.88;3.80;;;23.00;76.30;;;;;;5055371;28;20144;-74
2022/06/14 08:15:39;;;;;;;8.80;3.70;;;23.10;75.60;;;;;;5055724;28;20025;-73
2022/06/14 08:18:24;;;;;;;5.32;4.72;;;23.10;73.10;;;;;;5055254;28;20017;-73
2022/06/14 08:20:58;;;;;;;6.30;4.10;;;23.20;71.30;;;;;;5054963;28;20376;-75
2022/06/14 08:23:40;;;;;;;9.20;4.25;;;23.30;73.60;;;;;;5055039;28;20509;-74
2022/06/14 08:26:15;;;;;;;7.03;4.65;;;23.50;72.00;;;;;;5055369;28;20150;-75
2022/06/14 08:29:05;;;;;;;5.68;4.10;;;23.70;73.80;;;;;;5055512;28;20067;-77
2022/06/14 08:31:47;;;;;;;7.85;4.45;;;23.70;68.80;;;;;;5050816;28;20025;-75
2022/06/14 08:34:42;;;;;;;9.27;4.00;;;23.70;71.30;;;;;;5055226;28;20025;-76
2022/06/14 08:37:19;;;;;;;4.85;3.55;;;23.80;69.70;;;;;;5033283;28;20526;-76
2022/06/14 08:39:50;;;;;;;5.75;4.05;;;;;;;;;;5032613;28;20062;-75
2022/06/14 08:42:40;;;;;;;5.18;3.60;;;24.10;67.70;;;;;;5033003;28;20518;-75
2022/06/14 08:45:24;;;;;;;4.32;3.72;;;23.90;67.90;;;;;;5032560;28;20049;-74
2022/06/14 08:47:55;;;;;;;7.75;3.78;;;23.90;68.80;;;;;;5032535;28;20033;-76
2022/06/14 08:50:42;;;;;;;7.15;4.65;;;23.90;67.90;;;;;;5024000;28;20025;-77
2022/06/14 08:53:34;;;;;;;4.53;3.42;;;24.00;69.30;;;;;;5027571;28;20028;-76
2022/06/14 08:56:02;;;;;;;5.10;4.60;;;24.50;70.00;;;;;;5012671;28;20037;-75
2022/06/14 08:58:28;;;;;;;4.45;3.47;;;24.50;71.50;;;;;;5012742;28;20022;-77
2022/06/14 09:01:30;;;;;;;6.22;3.45;;;24.50;65.00;;;;;;5012873;28;20142;-75
2022/06/14 09:04:17;;;;;;;5.55;3.65;;;24.70;64.10;;;;;;5012819;28;20372;-75
2022/06/14 09:07:12;;;;;;;6.13;3.40;;;24.70;65.10;;;;;;5012250;28;20500;-74
2022/06/14 09:09:44;;;;;;;7.85;4.10;;;;;;;;;;5012726;28;20427;-74
2022/06/14 09:12:13;;;;;;;6.45;4.40;;;;;;;;;;5012605;28;20025;-77
2022/06/14 09:14:58;;;;;;;5.00;3.58;;;;;;;;;;5032213;28;20045;-76
2022/06/14 09:17:33;;;;;;;6.60;3.53;;;;;;;;;;5033186;28;20543;-73
2022/06/14 09:20:02;;;;;;;5.30;3.90;;;;;;;;;;5033971;28;20053;-75
2022/06/14 09:22:37;;;;;;;5.90;3.80;;;;;;;;;;5032672;28;20333;-74
2022/06/14 09:25:03;;;;;;;9.25;4.97;;;;;;;;;;5033926;28;20036;-73
2022/06/14 09:27:30;;;;;;;6.93;3.75;;;;;;;;;;5033285;28;20027;-75
2022/06/14 09:30:12;;;;;;;6.53;3.83;;;;;;;;;;5033565;28;20014;-75
2022/06/14 09:33:27;;;;;;;6.80;4.75;;;;;;;;;;5032440;28;20022;-76
2022/06/14 09:35:47;;;;;;;6.80;3.78;;;;;;;;;;5035489;28;20493;-75
2022/06/14 09:38:25;;;;;;;5.65;3.83;;;;;;;;;;5033656;28;20028;-75
2022/06/14 09:40:59;;;;;;;4.45;4.03;;;;;;;;;;5033285;28;20037;-75
2022/06/14 09:43:25;;;;;;;4.85;3.90;;;;;;;;;;5033387;28;20088;-76
2022/06/14 09:46:09;;;;;;;5.32;4.03;;;;;;;;;;5033228;28;20017;-75
2022/06/14 09:48:44;;;;;;;6.18;4.57;;;;;;;;;;5032990;28;20021;-74
2022/06/14 09:51:29;;;;;;;4.97;3.72;;;;;;;;;;5033309;28;20028;-75
2022/06/14 09:54:04;;;;;;;5.97;4.95;;;;;;;;;;5033387;28;20025;-76
2022/06/14 09:56:30;;;;;;;7.40;4.38;;;;;;;;;;5032931;28;20031;-76
2022/06/14 09:59:15;;;;;;;7.43;4.70;;;;;;;;;;5033424;28;20033;-74
2022/06/14 10:01:41;;;;;;;5.85;4.93;;;;;;;;;;5033021;28;20104;-76
2022/06/14 10:04:22;;;;;;;12.40;4.20;;;;;;;;;;5033358;28;20104;-75
2022/06/14 10:07:07;;;;;;;5.03;4.53;;;;;;;;;;5033886;28;20067;-76
2022/06/14 10:09:55;;;;;;;5.57;4.30;;;;;;;;;;5034178;28;20024;-75
2022/06/14 10:12:27;;;;;;;4.45;4.00;;;;;;;;;;5033504;28;20443;-76
2022/06/14 10:15:05;;;;;;;8.95;4.60;;;;;;;;;;5033673;28;20032;-75
2022/06/14 10:17:50;;;;;;;7.00;5.28;;;;;;;;;;5036127;28;20022;-76
2022/06/14 10:20:17;;;;;;;7.65;4.80;;;;;;;;;;5038066;28;20047;-77
2022/06/14 10:22:43;;;;;;;6.72;4.60;;;;;;;;;;5037265;28;20033;-74
2022/06/14 10:25:20;;;;;;;6.80;4.45;;;;;;;;;;5037765;28;20028;-76
2022/06/14 10:30:33;;;;;;;4.78;4.30;;;;;;;;;;5037278;28;20036;-76
2022/06/14 10:33:00;;;;;;;5.63;4.70;;;;;;;;;;5036255;28;20020;-76
2022/06/14 10:35:31;;;;;;;7.57;5.65;;;;;;;;;;5036802;28;20025;-76
2022/06/14 10:38:07;;;;;;;6.53;5.30;;;;;;;;;;5036414;28;20018;-74
2022/06/14 10:40:39;;;;;;;4.85;4.35;;;;;;;;;;5036681;28;20022;-76
2022/06/14 10:43:05;;;;;;;6.18;4.55;;;;;;;;;;5036990;28;20029;-76
2022/06/14 10:45:38;;;;;;;7.07;4.90;;;;;;;;;;5036340;28;20070;-75
2022/06/14 10:48:13;;;;;;;7.43;6.80;;;;;;;;;;5036775;28;20517;-75
2022/06/14 10:50:54;;;;;;;10.80;6.22;;;;;;;;;;5036211;28;20025;-74
2022/06/14 10:53:43;;;;;;;8.57;7.30;;;;;;;;;;5036150;28;20040;-76
2022/06/14 10:56:28;;;;;;;7.85;6.78;;;;;;;;;;5036687;28;20106;-77
2022/06/14 10:58:57;;;;;;;9.55;7.05;;;;;;;;;;5035999;28;20021;-76
2022/06/14 11:01:29;;;;;;;9.10;7.50;;;;;;;;;;5036310;28;20083;-74
2022/06/14 11:04:14;;;;;;;7.43;6.72;;;;;;;;;;5036204;28;20344;-77
2022/06/14 11:06:58;;;;;;;10.68;7.47;;;;;;;;;;5034620;28;20368;-76
2022/06/14 11:09:43;;;;;;;12.15;7.65;;;;;;;;;;5036170;28;20024;-75
2022/06/14 11:12:42;;;;;;;8.00;7.20;;;;;;;;;;5035981;28;20449;-77
2022/06/14 11:15:15;;;;;;;7.47;6.85;;;;;;;;;;5026681;28;20033;-75
2022/06/14 11:17:48;;;;;;;7.18;6.63;;;;;;;;;;5036290;28;20471;-76
2022/06/14 11:20:29;;;;;;;11.55;7.20;;;;;;;;;;5036049;28;20124;-76
2022/06/14 11:22:58;;;;;;;8.95;7.10;;;;;;;;;;5035900;28;20032;-77
2022/06/14 11:25:36;;;;;;;8.05;7.45;;;;;;;;;;5035527;28;20483;-75
2022/06/14 11:28:18;;;;;;;8.63;7.82;;;;;;;;;;5035504;28;20021;-76
2022/06/14 11:30:50;;;;;;;9.00;8.32;;;;;;;;;;5034994;28;20024;-76
2022/06/14 11:33:23;;;;;;;9.30;8.40;;;;;;;;;;5034246;28;20464;-76
2022/06/14 11:35:59;;;;;;;8.88;7.72;;;;;;;;;;5035975;28;20021;-77
2022/06/14 11:38:36;;;;;;;8.88;8.00;;;;;;;;;;5035442;28;20020;-74
2022/06/14 11:41:06;;;;;;;9.50;8.68;;;;;;;;;;5035579;28;20045;-75
2022/06/14 11:43:34;;;;;;;8.40;7.80;;;;;;;;;;5034842;28;20028;-75
2022/06/14 11:46:14;;;;;;;9.07;8.27;;;;;;;;;;5035666;28;20024;-75
2022/06/14 11:49:03;;;;;;;9.23;8.18;;;;;;;;;;5035208;28;20032;-78
2022/06/14 11:51:32;;;;;;;8.93;8.23;;;;;;;;;;5032427;28;20029;-77
2022/06/14 11:53:58;;;;;;;8.68;7.85;;;;;;;;;;5033829;28;20017;-76
2022/06/14 11:56:34;;;;;;;11.40;10.40;;;;;;;;;;5034073;28;20112;-77
2022/06/14 11:59:11;;;;;;;14.00;8.23;;;;;;;;;;5035247;28;20359;-77
2022/06/14 12:01:50;;;;;;;8.88;7.97;;;;;;;;;;5034881;28;20025;-76
2022/06/14 12:04:23;;;;;;;9.30;8.35;;;;;;;;;;5035339;28;20096;-77
2022/06/14 12:06:49;;;;;;;8.52;7.82;;;;;;;;;;5035109;28;20021;-76
2022/06/14 12:09:30;;;;;;;10.05;8.73;;;;;;;;;;5033714;28;20021;-77
2022/06/14 12:12:00;;;;;;;11.00;8.43;;;;;;;;;;5033938;28;20021;-75
2022/06/14 12:14:36;;;;;;;9.25;8.25;;;;;;;;;;5034866;28;20216;-76
2022/06/14 12:17:17;;;;;;;26.10;11.10;;;;;;;;;;5033845;28;20026;-76
2022/06/14 12:19:46;;;;;;;11.18;7.65;;;;;;;;;;5034637;28;20084;-76
2022/06/14 12:22:29;;;;;;;17.83;12.88;;;;;;;;;;5034686;28;20013;-75
2022/06/14 12:27:48;;;;;;;8.23;7.53;;;;;;;;;;5034800;28;20068;-75
2022/06/14 12:30:16;;;;;;;7.95;7.15;;;;;;;;;;5033109;28;20027;-75
2022/06/14 12:33:02;;;;;;;11.73;8.05;;;;;;;;;;5034432;28;20018;-77
2022/06/14 12:35:35;;;;;;;11.15;10.05;;;;;;;;;;5033905;28;20017;-75
2022/06/14 12:38:28;;;;;;;8.77;7.90;;;;;;;;;;5034527;28;20464;-74
2022/06/14 12:40:58;;;;;;;9.95;9.15;;;;;;;;;;5032839;28;20037;-75
2022/06/14 12:43:27;;;;;;;8.43;7.70;;;;;;;;;;5032852;28;20017;-77
2022/06/14 12:45:56;;;;;;;16.45;10.85;;;;;;;;;;5034342;28;20092;-75
2022/06/14 12:48:35;;;;;;;8.80;8.15;;;;;;;;;;5034292;28;20018;-76
2022/06/14 12:51:22;;;;;;;7.70;7.18;;;;;;;;;;5034455;28;20053;-78
2022/06/14 12:54:01;;;;;;;8.90;7.43;;;;;;;;;;5033903;28;20491;-75
2022/06/14 12:56:47;;;;;;;8.75;8.00;;;;;;;;;;5034517;28;20419;-76
2022/06/14 12:59:32;;;;;;;8.77;7.97;;;;;;;;;;5029543;28;20056;-76
2022/06/14 13:02:01;;;;;;;11.38;9.30;;;;;;;;;;5034921;28;20023;-76
2022/06/14 13:04:33;;;;;;;8.90;8.10;;;;;;;;;;5034513;28;20021;-75
2022/06/14 13:07:02;;;;;;;8.23;6.40;;;;;;;;;;5034815;28;20455;-74
2022/06/14 13:09:35;;;;;;;9.13;7.05;;;;;;;;;;5034311;28;20017;-74
2022/06/14 13:12:01;;;;;;;21.38;9.43;;;;;;;;;;5034408;28;20024;-75
2022/06/14 13:14:29;;;;;;;8.50;7.25;;;;;;;;;;5034509;28;20017;-75
2022/06/14 13:16:55;;;;;;;7.50;6.90;;;;;;;;;;5034663;28;20025;-75
2022/06/14 13:19:31;;;;;;;9.75;7.85;;;;;;;;;;5034044;28;20049;-75
2022/06/14 13:22:15;;;;;;;8.00;7.20;;;;;;;;;;5033586;28;20017;-75
2022/06/14 13:24:45;;;;;;;8.43;7.72;;;;;;;;;;5033142;28;20363;-75
2022/06/14 13:27:20;;;;;;;12.63;8.30;;;;;;;;;;5032478;28;20017;-76
2022/06/14 13:29:54;;;;;;;7.85;6.85;;;;;;;;;;5034119;28;20017;-77
2022/06/14 13:32:27;;;;;;;8.30;7.72;;;;;;;;;;5034152;28;20033;-75
2022/06/14 13:34:56;;;;;;;11.35;8.25;;;;;;;;;;5032740;28;20406;-74
2022/06/14 13:37:31;;;;;;;11.75;7.50;;;;;;;;;;5030937;28;20052;-76
2022/06/14 13:39:57;;;;;;;9.75;7.97;;;;;;;;;;5033246;28;20026;-76
2022/06/14 13:42:36;;;;;;;9.18;8.20;;;;;;;;;;5034207;28;20017;-76
2022/06/14 13:45:12;;;;;;;8.80;7.90;;;;;;;;;;5034004;28;20024;-76
2022/06/14 13:47:54;;;;;;;9.10;8.20;;;;;;;;;;5033901;28;20027;-75
2022/06/14 13:50:24;;;;;;;8.35;6.90;;;;;;;;;;5032696;28;20028;-74
2022/06/14 13:52:50;;;;;;;8.85;7.60;;;;;;;;;;5034090;28;20020;-76
2022/06/14 13:55:45;;;;;;;8.25;7.47;;;;;;;;;;5033994;28;20032;-75
2022/06/14 13:58:16;;;;;;;9.32;8.43;;;;;;;;;;5021613;28;20091;-75
2022/06/14 14:00:42;;;;;;;10.68;6.57;;;;;;;;;;5033525;28;20029;-77
2022/06/14 14:03:08;;;;;;;8.40;7.70;;;;;;;;;;5033646;28;20364;-76
2022/06/14 14:05:38;;;;;;;7.43;6.60;;;;;;;;;;5033656;28;20020;-76
2022/06/14 14:08:06;;;;;;;7.55;6.95;;;;;;;;;;5033693;28;20032;-74
2022/06/14 14:10:37;;;;;;;7.57;6.90;;;;;;;;;;5033878;28;20060;-75
2022/06/14 14:13:11;;;;;;;8.95;7.20;;;;;;;;;;5034235;28;20021;-76
2022/06/14 14:15:43;;;;;;;10.05;6.70;;;;;;;;;;5033312;28;20029;-76
2022/06/14 14:18:12;;;;;;;7.70;6.90;;;;;;;;;;5033419;28;20428;-76
2022/06/14 14:20:44;;;;;;;8.40;7.80;;;;;;;;;;5033762;28;20026;-77
2022/06/14 14:23:33;;;;;;;11.50;8.40;;;;;;;;;;5033957;28;20049;-76
2022/06/14 14:26:05;;;;;;;8.63;7.75;;;;;;;;;;5034130;28;20022;-74
2022/06/14 14:28:50;;;;;;;8.30;7.60;;;;;;;;;;5033476;28;20025;-75
2022/06/14 14:31:16;;;;;;;8.40;7.70;;;;;;;;;;5033379;28;20020;-75
2022/06/14 14:33:48;;;;;;;8.57;7.80;;;;;;;;;;5033327;28;20036;-74
2022/06/14 14:36:14;;;;;;;8.40;7.70;;;;;;;;;;5033333;28;20028;-76